Aeroporto :
LOGIN :

Iscrizione | Disclaimer

   EN    FR    IT 

 










Sommario :    VFR   VFR Marginale   IFR   IFR Intensivo   IFR Molto Intensivo
Visibilità : 
Base nubi : 
>= 8 km
>= 3000ft
5 / 8 km
1000 / 3000 ft
1500m / 5 km
500 / 1000 ft
800 / 1500m
200 / 500 ft
< 800m
< 200 ft
Simboli :   Temporali  Nebbia  Neve Forte  Precipitazioni Forti  Vento > 20 kt
SIGMETs :   Varie  Temporali  Ghiacco  Turbolenza  Onda orograficha  Ceneri Vulcaniche






- Altitudine del aeroporto : 1548 ft


LKNA - Náměšť Air Base

ULTIMO METAR :
  • 182230Z 06003KT 030V090 CAVOK 20/14 Q1023 RMK BLACK

METARs OBSOLETI :
  • 182200Z 05004KT CAVOK 20/14 Q1023 RMK BLACK
  • 182130Z 03005KT CAVOK 21/14 Q1023 RMK BLACK
  • 182100Z 03006KT CAVOK 21/14 Q1023 RMK BLACK
  • 182030Z 05004KT CAVOK 22/14 Q1023 RMK BLACK
  • 182000Z 08004KT CAVOK 22/14 Q1023 RMK BLACK
  • 181930Z 06004KT CAVOK 23/14 Q1022 RMK BLACK
  • 181900Z 06004KT CAVOK 23/14 Q1022
  • 181830Z 06004KT CAVOK 24/14 Q1022 RMK BLACK

TAF TAF LKNA
Valido dal 18 a 18 ore il 19 a 18 ore UTC


181700Z 1818/1918 05006KT CAVOK
BECMG 1906/1908 11006KT



MetMap, La meteo Aeronautica in un colpo d'occhio ! - Copyright ORBIFLY Dicembre 2007 - Disclaimer

ORBIFLY MET'MAP TEAM :

Programmazione e sviluppo : Alexandra Zaïnal
Concezione : Baudouin d'Aumeries
Supporto tecnico e logistico : Manuel Goepfert
Aiuto : Marc-Olivier Méhu
Aiuto per la traduzione : Arnaldo La Scala




FONTI E CREDITI :

   NOAA